sensor_id;sensor_type;location;lat;lon;timestamp;pressure;altitude;pressure_sealevel;temperature;humidity
10518;BME280;5307;42.548;22.968;2023-07-31T00:02:19;93541.00;;;20.90;100.00
10518;BME280;5307;42.548;22.968;2023-07-31T00:04:46;93543.78;;;20.65;100.00
10518;BME280;5307;42.548;22.968;2023-07-31T00:07:12;93525.22;;;21.03;100.00
10518;BME280;5307;42.548;22.968;2023-07-31T00:09:39;93528.16;;;20.43;100.00
10518;BME280;5307;42.548;22.968;2023-07-31T00:12:08;93522.50;;;20.98;100.00
10518;BME280;5307;42.548;22.968;2023-07-31T00:14:35;93524.00;;;20.99;99.33
10518;BME280;5307;42.548;22.968;2023-07-31T00:17:01;93511.44;;;20.92;96.59
10518;BME280;5307;42.548;22.968;2023-07-31T00:19:28;93506.59;;;20.98;99.17
10518;BME280;5307;42.548;22.968;2023-07-31T00:21:55;93505.22;;;20.86;100.00
10518;BME280;5307;42.548;22.968;2023-07-31T00:24:22;93503.78;;;20.80;100.00
10518;BME280;5307;42.548;22.968;2023-07-31T00:26:54;93506.94;;;20.70;100.00
10518;BME280;5307;42.548;22.968;2023-07-31T00:29:22;93512.78;;;20.37;100.00
10518;BME280;5307;42.548;22.968;2023-07-31T00:31:49;93525.53;;;20.21;100.00
10518;BME280;5307;42.548;22.968;2023-07-31T00:40:03;93517.97;;;20.22;100.00
10518;BME280;5307;42.548;22.968;2023-07-31T00:42:31;93509.59;;;20.57;100.00
10518;BME280;5307;42.548;22.968;2023-07-31T00:44:59;93501.59;;;20.72;100.00
10518;BME280;5307;42.548;22.968;2023-07-31T00:47:26;93501.94;;;20.63;100.00
10518;BME280;5307;42.548;22.968;2023-07-31T00:49:53;93508.78;;;20.62;100.00
10518;BME280;5307;42.548;22.968;2023-07-31T00:52:20;93499.78;;;20.56;100.00
10518;BME280;5307;42.548;22.968;2023-07-31T00:54:48;93492.38;;;20.34;100.00
10518;BME280;5307;42.548;22.968;2023-07-31T00:57:15;93488.41;;;20.54;100.00
10518;BME280;5307;42.548;22.968;2023-07-31T00:59:42;93490.22;;;20.52;99.58
10518;BME280;5307;42.548;22.968;2023-07-31T01:02:10;93483.06;;;20.81;94.56
10518;BME280;5307;42.548;22.968;2023-07-31T01:04:37;93491.41;;;20.81;94.33
10518;BME280;5307;42.548;22.968;2023-07-31T01:07:11;93494.94;;;20.32;100.00
10518;BME280;5307;42.548;22.968;2023-07-31T01:09:45;93509.00;;;19.80;100.00
10518;BME280;5307;42.548;22.968;2023-07-31T01:12:15;93514.91;;;19.95;100.00
10518;BME280;5307;42.548;22.968;2023-07-31T01:14:51;93509.56;;;20.33;100.00
10518;BME280;5307;42.548;22.968;2023-07-31T01:17:20;93506.56;;;20.31;100.00
10518;BME280;5307;42.548;22.968;2023-07-31T01:19:47;93512.81;;;20.07;100.00
10518;BME280;5307;42.548;22.968;2023-07-31T01:28:36;93511.63;;;20.27;100.00
10518;BME280;5307;42.548;22.968;2023-07-31T01:31:10;93511.06;;;20.34;98.08
10518;BME280;5307;42.548;22.968;2023-07-31T01:33:39;93520.34;;;20.36;97.87
10518;BME280;5307;42.548;22.968;2023-07-31T01:36:15;93512.19;;;20.50;97.50
10518;BME280;5307;42.548;22.968;2023-07-31T01:38:43;93519.84;;;20.38;96.55
10518;BME280;5307;42.548;22.968;2023-07-31T01:41:10;93515.69;;;20.74;96.92
10518;BME280;5307;42.548;22.968;2023-07-31T01:43:38;93518.63;;;20.82;95.44
10518;BME280;5307;42.548;22.968;2023-07-31T01:46:05;93526.28;;;20.76;95.10
10518;BME280;5307;42.548;22.968;2023-07-31T01:48:32;93521.72;;;20.79;97.56
10518;BME280;5307;42.548;22.968;2023-07-31T01:51:01;93520.66;;;20.82;98.67
10518;BME280;5307;42.548;22.968;2023-07-31T01:53:28;93527.03;;;20.52;97.54
10518;BME280;5307;42.548;22.968;2023-07-31T01:55:55;93533.75;;;20.62;98.62
10518;BME280;5307;42.548;22.968;2023-07-31T01:58:21;93528.38;;;20.70;97.71
10518;BME280;5307;42.548;22.968;2023-07-31T02:00:50;93526.47;;;20.84;97.32
10518;BME280;5307;42.548;22.968;2023-07-31T02:03:16;93524.06;;;20.69;97.70
10518;BME280;5307;42.548;22.968;2023-07-31T02:05:47;93524.75;;;20.56;99.03
10518;BME280;5307;42.548;22.968;2023-07-31T02:08:15;93518.06;;;20.65;98.45
10518;BME280;5307;42.548;22.968;2023-07-31T02:10:42;93512.22;;;20.68;97.16
10518;BME280;5307;42.548;22.968;2023-07-31T02:13:08;93518.06;;;20.65;96.87
10518;BME280;5307;42.548;22.968;2023-07-31T02:15:36;93519.31;;;20.69;97.51
10518;BME280;5307;42.548;22.968;2023-07-31T02:18:04;93526.50;;;20.78;97.26
10518;BME280;5307;42.548;22.968;2023-07-31T02:20:33;93534.94;;;20.91;96.99
10518;BME280;5307;42.548;22.968;2023-07-31T02:23:00;93531.31;;;20.78;99.63
10518;BME280;5307;42.548;22.968;2023-07-31T02:25:27;93532.34;;;20.74;100.00
10518;BME280;5307;42.548;22.968;2023-07-31T02:27:54;93536.81;;;20.59;100.00
10518;BME280;5307;42.548;22.968;2023-07-31T02:30:21;93528.09;;;20.73;100.00
10518;BME280;5307;42.548;22.968;2023-07-31T02:32:47;93529.00;;;20.57;100.00
10518;BME280;5307;42.548;22.968;2023-07-31T02:35:15;93531.84;;;20.52;100.00
10518;BME280;5307;42.548;22.968;2023-07-31T02:37:43;93530.78;;;20.55;100.00
10518;BME280;5307;42.548;22.968;2023-07-31T02:40:11;93540.28;;;20.35;100.00
10518;BME280;5307;42.548;22.968;2023-07-31T02:42:38;93532.94;;;20.37;100.00
10518;BME280;5307;42.548;22.968;2023-07-31T02:45:06;93533.41;;;20.47;100.00
10518;BME280;5307;42.548;22.968;2023-07-31T02:47:33;93536.69;;;20.40;100.00
10518;BME280;5307;42.548;22.968;2023-07-31T02:49:59;93535.88;;;20.21;100.00
10518;BME280;5307;42.548;22.968;2023-07-31T02:52:29;93545.91;;;20.29;100.00
10518;BME280;5307;42.548;22.968;2023-07-31T02:54:55;93543.66;;;20.28;100.00
10518;BME280;5307;42.548;22.968;2023-07-31T02:57:22;93543.38;;;20.26;100.00
10518;BME280;5307;42.548;22.968;2023-07-31T02:59:49;93543.38;;;20.26;100.00
10518;BME280;5307;42.548;22.968;2023-07-31T03:02:16;93545.09;;;20.34;100.00
10518;BME280;5307;42.548;22.968;2023-07-31T03:04:43;93541.53;;;20.09;100.00
10518;BME280;5307;42.548;22.968;2023-07-31T03:07:09;93542.28;;;20.10;100.00
10518;BME280;5307;42.548;22.968;2023-07-31T03:09:38;93550.81;;;20.12;100.00
10518;BME280;5307;42.548;22.968;2023-07-31T03:12:05;93551.41;;;20.05;100.00
10518;BME280;5307;42.548;22.968;2023-07-31T03:14:32;93544.44;;;20.23;100.00
10518;BME280;5307;42.548;22.968;2023-07-31T03:16:59;93550.06;;;20.11;100.00
10518;BME280;5307;42.548;22.968;2023-07-31T03:19:26;93561.88;;;20.17;100.00
10518;BME280;5307;42.548;22.968;2023-07-31T03:21:53;93562.31;;;20.27;100.00
10518;BME280;5307;42.548;22.968;2023-07-31T03:24:19;93564.56;;;20.29;100.00
10518;BME280;5307;42.548;22.968;2023-07-31T03:26:47;93567.00;;;20.38;100.00
10518;BME280;5307;42.548;22.968;2023-07-31T03:29:14;93569.38;;;20.23;100.00
10518;BME280;5307;42.548;22.968;2023-07-31T03:31:41;93569.63;;;20.25;100.00
10518;BME280;5307;42.548;22.968;2023-07-31T03:34:08;93563.44;;;20.13;100.00
10518;BME280;5307;42.548;22.968;2023-07-31T03:36:35;93576.06;;;20.08;100.00
10518;BME280;5307;42.548;22.968;2023-07-31T03:39:02;93573.16;;;20.25;100.00
10518;BME280;5307;42.548;22.968;2023-07-31T03:41:29;93577.47;;;20.21;100.00
10518;BME280;5307;42.548;22.968;2023-07-31T03:43:57;93575.28;;;20.13;100.00
10518;BME280;5307;42.548;22.968;2023-07-31T03:46:24;93584.59;;;20.16;100.00
10518;BME280;5307;42.548;22.968;2023-07-31T03:48:51;93580.63;;;20.36;100.00
10518;BME280;5307;42.548;22.968;2023-07-31T03:51:18;93575.53;;;20.45;100.00
10518;BME280;5307;42.548;22.968;2023-07-31T03:53:45;93565.34;;;21.46;100.00
10518;BME280;5307;42.548;22.968;2023-07-31T03:56:12;93580.63;;;20.66;100.00
10518;BME280;5307;42.548;22.968;2023-07-31T03:58:38;93579.75;;;20.52;100.00
10518;BME280;5307;42.548;22.968;2023-07-31T04:01:07;93560.97;;;20.34;100.00
10518;BME280;5307;42.548;22.968;2023-07-31T04:03:33;93573.94;;;20.56;100.00
10518;BME280;5307;42.548;22.968;2023-07-31T04:06:00;93591.72;;;20.66;100.00
10518;BME280;5307;42.548;22.968;2023-07-31T04:08:27;93586.84;;;20.48;100.00
10518;BME280;5307;42.548;22.968;2023-07-31T04:10:53;93596.13;;;20.56;100.00
10518;BME280;5307;42.548;22.968;2023-07-31T04:13:21;93593.22;;;20.37;100.00
10518;BME280;5307;42.548;22.968;2023-07-31T04:15:49;93582.13;;;20.37;100.00
10518;BME280;5307;42.548;22.968;2023-07-31T04:18:17;93604.50;;;20.14;100.00
10518;BME280;5307;42.548;22.968;2023-07-31T04:20:44;93602.81;;;20.41;100.00
10518;BME280;5307;42.548;22.968;2023-07-31T04:23:11;93597.44;;;20.49;100.00
10518;BME280;5307;42.548;22.968;2023-07-31T04:25:38;93597.38;;;20.55;100.00
10518;BME280;5307;42.548;22.968;2023-07-31T04:28:05;93588.19;;;20.65;100.00
10518;BME280;5307;42.548;22.968;2023-07-31T04:30:33;93598.66;;;20.78;100.00
10518;BME280;5307;42.548;22.968;2023-07-31T04:32:59;93602.56;;;20.69;100.00
10518;BME280;5307;42.548;22.968;2023-07-31T04:35:27;93597.00;;;20.94;100.00
10518;BME280;5307;42.548;22.968;2023-07-31T04:37:54;93599.88;;;20.83;100.00
10518;BME280;5307;42.548;22.968;2023-07-31T04:40:21;93594.69;;;20.98;100.00
10518;BME280;5307;42.548;22.968;2023-07-31T04:42:48;93597.19;;;21.01;100.00
10518;BME280;5307;42.548;22.968;2023-07-31T04:45:15;93592.38;;;21.02;100.00
10518;BME280;5307;42.548;22.968;2023-07-31T04:47:41;93586.75;;;21.08;99.34
10518;BME280;5307;42.548;22.968;2023-07-31T04:50:09;93582.47;;;21.07;98.60
10518;BME280;5307;42.548;22.968;2023-07-31T04:52:37;93586.53;;;21.05;95.41
10518;BME280;5307;42.548;22.968;2023-07-31T04:55:04;93591.25;;;21.11;95.94
10518;BME280;5307;42.548;22.968;2023-07-31T04:57:31;93587.97;;;21.12;97.14
10518;BME280;5307;42.548;22.968;2023-07-31T04:59:58;93591.78;;;21.33;96.40
10518;BME280;5307;42.548;22.968;2023-07-31T05:02:25;93588.47;;;21.35;96.47
10518;BME280;5307;42.548;22.968;2023-07-31T05:04:52;93587.88;;;21.42;95.10
10518;BME280;5307;42.548;22.968;2023-07-31T05:07:18;93583.66;;;21.36;94.86
10518;BME280;5307;42.548;22.968;2023-07-31T05:09:47;93585.78;;;21.29;94.90
10518;BME280;5307;42.548;22.968;2023-07-31T05:12:13;93586.75;;;21.32;93.18
10518;BME280;5307;42.548;22.968;2023-07-31T05:14:40;93594.41;;;21.45;90.65
10518;BME280;5307;42.548;22.968;2023-07-31T05:17:07;93587.50;;;21.32;88.02
10518;BME280;5307;42.548;22.968;2023-07-31T05:19:34;93581.06;;;21.19;87.17
10518;BME280;5307;42.548;22.968;2023-07-31T05:22:00;93581.84;;;21.38;86.81
10518;BME280;5307;42.548;22.968;2023-07-31T05:24:27;93583.53;;;21.28;86.19
10518;BME280;5307;42.548;22.968;2023-07-31T05:26:55;93579.03;;;21.44;86.12
10518;BME280;5307;42.548;22.968;2023-07-31T05:29:22;93576.56;;;21.40;84.19
10518;BME280;5307;42.548;22.968;2023-07-31T05:31:49;93582.78;;;21.65;84.38
10518;BME280;5307;42.548;22.968;2023-07-31T05:34:15;93588.34;;;21.84;84.32
10518;BME280;5307;42.548;22.968;2023-07-31T05:36:42;93591.34;;;21.86;82.61
10518;BME280;5307;42.548;22.968;2023-07-31T05:39:09;93587.59;;;21.83;83.08
10518;BME280;5307;42.548;22.968;2023-07-31T05:41:36;93592.88;;;22.19;81.90
10518;BME280;5307;42.548;22.968;2023-07-31T05:44:04;93586.53;;;21.68;81.15
10518;BME280;5307;42.548;22.968;2023-07-31T05:46:31;93584.41;;;21.92;79.36
10518;BME280;5307;42.548;22.968;2023-07-31T05:49:01;93592.53;;;21.90;78.04
10518;BME280;5307;42.548;22.968;2023-07-31T05:51:28;93585.63;;;22.61;78.12
10518;BME280;5307;42.548;22.968;2023-07-31T05:53:55;93592.91;;;22.77;76.74
10518;BME280;5307;42.548;22.968;2023-07-31T05:56:21;93593.41;;;23.08;74.40
10518;BME280;5307;42.548;22.968;2023-07-31T05:58:48;93589.19;;;22.75;72.75
10518;BME280;5307;42.548;22.968;2023-07-31T06:01:17;93591.91;;;23.33;72.00
10518;BME280;5307;42.548;22.968;2023-07-31T06:03:44;93592.66;;;23.60;71.99
10518;BME280;5307;42.548;22.968;2023-07-31T06:06:11;93594.78;;;24.02;68.70
10518;BME280;5307;42.548;22.968;2023-07-31T06:08:39;93592.88;;;23.23;68.47
10518;BME280;5307;42.548;22.968;2023-07-31T06:11:06;93598.88;;;23.53;66.23
10518;BME280;5307;42.548;22.968;2023-07-31T06:13:34;93594.91;;;23.35;64.15
10518;BME280;5307;42.548;22.968;2023-07-31T06:16:01;93598.75;;;24.06;62.41
10518;BME280;5307;42.548;22.968;2023-07-31T06:18:32;93597.75;;;23.83;62.35
10518;BME280;5307;42.548;22.968;2023-07-31T06:20:58;93597.19;;;23.97;60.15
10518;BME280;5307;42.548;22.968;2023-07-31T06:23:25;93601.72;;;24.21;61.51
10518;BME280;5307;42.548;22.968;2023-07-31T06:25:52;93608.53;;;23.99;59.86
10518;BME280;5307;42.548;22.968;2023-07-31T06:28:19;93612.91;;;24.42;60.79
10518;BME280;5307;42.548;22.968;2023-07-31T06:30:46;93610.72;;;24.48;60.60
10518;BME280;5307;42.548;22.968;2023-07-31T06:33:12;93604.13;;;24.59;59.85
10518;BME280;5307;42.548;22.968;2023-07-31T06:35:41;93605.22;;;24.56;61.46
10518;BME280;5307;42.548;22.968;2023-07-31T06:38:08;93587.66;;;24.14;59.26
10518;BME280;5307;42.548;22.968;2023-07-31T06:40:34;93592.41;;;24.40;59.79
10518;BME280;5307;42.548;22.968;2023-07-31T06:43:01;93585.44;;;25.24;56.63
10518;BME280;5307;42.548;22.968;2023-07-31T06:45:35;93590.75;;;24.86;57.25
10518;BME280;5307;42.548;22.968;2023-07-31T06:48:03;93580.56;;;25.17;56.69
10518;BME280;5307;42.548;22.968;2023-07-31T06:50:31;93574.28;;;25.24;60.34
10518;BME280;5307;42.548;22.968;2023-07-31T06:52:59;93584.31;;;24.99;57.32
10518;BME280;5307;42.548;22.968;2023-07-31T06:55:26;93581.91;;;24.74;56.87
10518;BME280;5307;42.548;22.968;2023-07-31T06:57:54;93582.81;;;25.55;55.86
10518;BME280;5307;42.548;22.968;2023-07-31T07:00:22;93584.38;;;24.57;57.07
10518;BME280;5307;42.548;22.968;2023-07-31T07:02:49;93572.47;;;25.70;56.32
10518;BME280;5307;42.548;22.968;2023-07-31T07:05:17;93568.47;;;26.17;56.39
10518;BME280;5307;42.548;22.968;2023-07-31T07:07:44;93574.47;;;25.26;54.99
10518;BME280;5307;42.548;22.968;2023-07-31T07:10:12;93579.31;;;24.76;55.91
10518;BME280;5307;42.548;22.968;2023-07-31T07:12:39;93580.13;;;24.84;55.36
10518;BME280;5307;42.548;22.968;2023-07-31T07:15:15;93585.16;;;24.86;55.27
10518;BME280;5307;42.548;22.968;2023-07-31T07:17:42;93588.47;;;24.56;56.60
10518;BME280;5307;42.548;22.968;2023-07-31T07:23:29;93563.09;;;26.19;53.97
10518;BME280;5307;42.548;22.968;2023-07-31T07:25:57;93582.09;;;25.62;55.04
10518;BME280;5307;42.548;22.968;2023-07-31T07:28:24;93580.53;;;25.89;57.24
10518;BME280;5307;42.548;22.968;2023-07-31T07:30:51;93581.50;;;25.99;57.39
10518;BME280;5307;42.548;22.968;2023-07-31T07:33:19;93584.72;;;25.67;54.01
10518;BME280;5307;42.548;22.968;2023-07-31T07:35:46;93578.72;;;25.99;53.45
10518;BME280;5307;42.548;22.968;2023-07-31T07:38:13;93583.81;;;26.24;51.68
10518;BME280;5307;42.548;22.968;2023-07-31T07:40:41;93579.09;;;26.03;50.90
10518;BME280;5307;42.548;22.968;2023-07-31T07:43:09;93587.22;;;26.45;51.61
10518;BME280;5307;42.548;22.968;2023-07-31T07:45:36;93598.81;;;26.49;51.52
10518;BME280;5307;42.548;22.968;2023-07-31T07:48:03;93596.03;;;26.57;49.77
10518;BME280;5307;42.548;22.968;2023-07-31T07:50:30;93591.09;;;26.27;50.74
10518;BME280;5307;42.548;22.968;2023-07-31T07:52:56;93593.97;;;26.57;51.19
10518;BME280;5307;42.548;22.968;2023-07-31T07:55:23;93588.75;;;26.69;49.06
10518;BME280;5307;42.548;22.968;2023-07-31T07:57:50;93588.66;;;26.31;49.22
10518;BME280;5307;42.548;22.968;2023-07-31T08:00:18;93600.88;;;25.90;50.82
10518;BME280;5307;42.548;22.968;2023-07-31T08:02:45;93587.28;;;26.01;51.45
10518;BME280;5307;42.548;22.968;2023-07-31T08:05:12;93593.16;;;26.26;52.17
10518;BME280;5307;42.548;22.968;2023-07-31T08:07:39;93596.22;;;26.59;51.58
10518;BME280;5307;42.548;22.968;2023-07-31T08:10:07;93593.06;;;26.78;52.01
10518;BME280;5307;42.548;22.968;2023-07-31T08:12:33;93596.78;;;27.34;51.88
10518;BME280;5307;42.548;22.968;2023-07-31T08:15:00;93596.97;;;26.90;51.20
10518;BME280;5307;42.548;22.968;2023-07-31T08:17:28;93592.50;;;26.79;49.44
10518;BME280;5307;42.548;22.968;2023-07-31T08:19:55;93602.53;;;25.78;50.20
10518;BME280;5307;42.548;22.968;2023-07-31T08:22:24;93601.59;;;25.18;50.68
10518;BME280;5307;42.548;22.968;2023-07-31T08:24:51;93609.50;;;25.99;50.05
10518;BME280;5307;42.548;22.968;2023-07-31T08:27:18;93607.06;;;26.62;50.18
10518;BME280;5307;42.548;22.968;2023-07-31T08:29:44;93601.00;;;26.20;49.19
10518;BME280;5307;42.548;22.968;2023-07-31T08:32:11;93592.44;;;26.33;50.06
10518;BME280;5307;42.548;22.968;2023-07-31T08:34:39;93588.34;;;26.42;51.21
10518;BME280;5307;42.548;22.968;2023-07-31T08:37:07;93605.56;;;25.59;50.44
10518;BME280;5307;42.548;22.968;2023-07-31T08:39:33;93600.88;;;25.90;50.61
10518;BME280;5307;42.548;22.968;2023-07-31T08:42:00;93599.97;;;27.23;51.18
10518;BME280;5307;42.548;22.968;2023-07-31T08:44:28;93597.91;;;26.62;49.09
10518;BME280;5307;42.548;22.968;2023-07-31T08:46:56;93592.47;;;25.82;49.77
10518;BME280;5307;42.548;22.968;2023-07-31T08:49:23;93598.94;;;25.69;50.52
10518;BME280;5307;42.548;22.968;2023-07-31T08:51:52;93591.25;;;26.14;48.45
10518;BME280;5307;42.548;22.968;2023-07-31T08:54:20;93599.13;;;26.23;49.47
10518;BME280;5307;42.548;22.968;2023-07-31T08:56:47;93602.38;;;26.88;47.75
10518;BME280;5307;42.548;22.968;2023-07-31T08:59:15;93588.59;;;26.75;49.71
10518;BME280;5307;42.548;22.968;2023-07-31T09:01:44;93590.63;;;26.67;47.21
10518;BME280;5307;42.548;22.968;2023-07-31T09:04:14;93603.88;;;26.81;49.33
10518;BME280;5307;42.548;22.968;2023-07-31T09:06:43;93590.22;;;26.55;49.12
10518;BME280;5307;42.548;22.968;2023-07-31T09:09:12;93587.06;;;26.58;46.40
10518;BME280;5307;42.548;22.968;2023-07-31T09:11:39;93572.22;;;27.49;48.23
10518;BME280;5307;42.548;22.968;2023-07-31T09:14:08;93580.38;;;25.95;47.64
10518;BME280;5307;42.548;22.968;2023-07-31T09:16:35;93599.00;;;25.85;49.10
10518;BME280;5307;42.548;22.968;2023-07-31T09:19:02;93587.66;;;25.90;49.40
10518;BME280;5307;42.548;22.968;2023-07-31T09:21:30;93592.56;;;26.13;48.79
10518;BME280;5307;42.548;22.968;2023-07-31T09:23:57;93592.03;;;25.70;48.53
10518;BME280;5307;42.548;22.968;2023-07-31T09:26:33;93585.84;;;25.64;49.14
10518;BME280;5307;42.548;22.968;2023-07-31T09:29:01;93585.94;;;26.69;49.76
10518;BME280;5307;42.548;22.968;2023-07-31T09:31:38;93574.91;;;26.86;46.71
10518;BME280;5307;42.548;22.968;2023-07-31T09:34:05;93576.81;;;27.07;47.42
10518;BME280;5307;42.548;22.968;2023-07-31T09:36:32;93580.28;;;27.45;45.86
10518;BME280;5307;42.548;22.968;2023-07-31T09:39:02;93580.44;;;27.55;45.13
10518;BME280;5307;42.548;22.968;2023-07-31T09:41:31;93571.56;;;27.11;45.85
10518;BME280;5307;42.548;22.968;2023-07-31T09:44:02;93576.19;;;27.46;46.66
10518;BME280;5307;42.548;22.968;2023-07-31T09:46:31;93586.53;;;27.06;45.56
10518;BME280;5307;42.548;22.968;2023-07-31T09:49:08;93581.66;;;26.60;45.93
10518;BME280;5307;42.548;22.968;2023-07-31T09:51:36;93576.53;;;26.28;45.35
10518;BME280;5307;42.548;22.968;2023-07-31T09:54:09;93577.16;;;26.42;45.84
10518;BME280;5307;42.548;22.968;2023-07-31T09:56:41;93589.50;;;26.62;46.63
10518;BME280;5307;42.548;22.968;2023-07-31T09:59:11;93577.91;;;27.11;45.35
10518;BME280;5307;42.548;22.968;2023-07-31T10:01:38;93582.41;;;26.84;45.68
10518;BME280;5307;42.548;22.968;2023-07-31T10:04:07;93573.63;;;26.49;48.06
10518;BME280;5307;42.548;22.968;2023-07-31T10:06:34;93565.38;;;27.20;44.69
10518;BME280;5307;42.548;22.968;2023-07-31T10:09:02;93572.97;;;27.50;44.01
10518;BME280;5307;42.548;22.968;2023-07-31T10:11:30;93564.94;;;27.46;43.76
10518;BME280;5307;42.548;22.968;2023-07-31T10:14:02;93557.34;;;27.16;43.74
10518;BME280;5307;42.548;22.968;2023-07-31T10:16:30;93560.41;;;27.59;46.90
10518;BME280;5307;42.548;22.968;2023-07-31T10:18:58;93557.53;;;26.88;43.86
10518;BME280;5307;42.548;22.968;2023-07-31T10:21:25;93555.88;;;26.92;42.81
10518;BME280;5307;42.548;22.968;2023-07-31T10:23:53;93554.91;;;26.98;42.13
10518;BME280;5307;42.548;22.968;2023-07-31T10:26:23;93557.00;;;27.75;44.68
10518;BME280;5307;42.548;22.968;2023-07-31T10:28:52;93555.94;;;27.56;41.20
10518;BME280;5307;42.548;22.968;2023-07-31T10:31:21;93550.22;;;27.86;44.03
10518;BME280;5307;42.548;22.968;2023-07-31T10:33:49;93543.38;;;28.45;45.66
10518;BME280;5307;42.548;22.968;2023-07-31T10:36:17;93535.91;;;27.67;42.45
10518;BME280;5307;42.548;22.968;2023-07-31T10:38:44;93543.78;;;27.61;41.83
10518;BME280;5307;42.548;22.968;2023-07-31T10:41:11;93536.06;;;28.09;44.14
10518;BME280;5307;42.548;22.968;2023-07-31T10:43:38;93540.09;;;28.23;41.29
10518;BME280;5307;42.548;22.968;2023-07-31T10:46:08;93548.00;;;28.50;41.99
10518;BME280;5307;42.548;22.968;2023-07-31T10:48:37;93534.00;;;28.42;40.95
10518;BME280;5307;42.548;22.968;2023-07-31T10:51:07;93542.31;;;28.32;40.30
10518;BME280;5307;42.548;22.968;2023-07-31T10:53:35;93550.97;;;28.77;40.23
10518;BME280;5307;42.548;22.968;2023-07-31T10:56:03;93536.41;;;28.46;38.53
10518;BME280;5307;42.548;22.968;2023-07-31T10:58:31;93524.41;;;28.20;39.61
10518;BME280;5307;42.548;22.968;2023-07-31T11:00:59;93523.13;;;28.46;40.69
10518;BME280;5307;42.548;22.968;2023-07-31T11:03:29;93518.53;;;28.58;39.69
10518;BME280;5307;42.548;22.968;2023-07-31T11:06:08;93521.44;;;28.10;39.56
10518;BME280;5307;42.548;22.968;2023-07-31T11:08:40;93522.47;;;28.80;42.61
10518;BME280;5307;42.548;22.968;2023-07-31T11:11:09;93522.28;;;28.78;41.20
10518;BME280;5307;42.548;22.968;2023-07-31T11:13:41;93517.75;;;28.83;38.89
10518;BME280;5307;42.548;22.968;2023-07-31T11:16:08;93510.22;;;28.10;39.17
10518;BME280;5307;42.548;22.968;2023-07-31T11:18:35;93522.59;;;28.65;40.19
10518;BME280;5307;42.548;22.968;2023-07-31T11:21:02;93519.56;;;28.13;40.87
10518;BME280;5307;42.548;22.968;2023-07-31T11:23:30;93512.22;;;27.85;41.28
10518;BME280;5307;42.548;22.968;2023-07-31T11:26:00;93526.16;;;27.75;43.54
10518;BME280;5307;42.548;22.968;2023-07-31T11:28:31;93536.06;;;27.76;44.29
10518;BME280;5307;42.548;22.968;2023-07-31T11:30:58;93540.91;;;28.16;45.23
10518;BME280;5307;42.548;22.968;2023-07-31T11:33:25;93536.56;;;27.35;45.36
10518;BME280;5307;42.548;22.968;2023-07-31T11:35:52;93534.34;;;27.26;45.77
10518;BME280;5307;42.548;22.968;2023-07-31T11:38:22;93541.13;;;27.70;46.37
10518;BME280;5307;42.548;22.968;2023-07-31T11:40:51;93539.72;;;27.87;45.61
10518;BME280;5307;42.548;22.968;2023-07-31T11:43:19;93534.00;;;27.69;45.87
10518;BME280;5307;42.548;22.968;2023-07-31T11:45:47;93524.09;;;26.98;45.68
10518;BME280;5307;42.548;22.968;2023-07-31T11:48:21;93520.53;;;27.12;45.42
10518;BME280;5307;42.548;22.968;2023-07-31T11:50:50;93515.03;;;27.45;46.75
10518;BME280;5307;42.548;22.968;2023-07-31T11:53:22;93502.66;;;27.48;45.21
10518;BME280;5307;42.548;22.968;2023-07-31T11:55:51;93516.19;;;27.34;44.42
10518;BME280;5307;42.548;22.968;2023-07-31T11:58:19;93506.88;;;27.16;45.17
10518;BME280;5307;42.548;22.968;2023-07-31T12:00:46;93500.19;;;27.04;45.13
10518;BME280;5307;42.548;22.968;2023-07-31T12:03:13;93495.06;;;27.26;45.76
10518;BME280;5307;42.548;22.968;2023-07-31T12:05:40;93498.97;;;27.30;45.27
10518;BME280;5307;42.548;22.968;2023-07-31T12:08:11;93501.94;;;27.47;44.20
10518;BME280;5307;42.548;22.968;2023-07-31T12:10:38;93492.97;;;27.82;46.75
10518;BME280;5307;42.548;22.968;2023-07-31T12:13:12;93491.81;;;27.92;47.08
10518;BME280;5307;42.548;22.968;2023-07-31T12:15:46;93484.16;;;27.85;43.93
10518;BME280;5307;42.548;22.968;2023-07-31T12:18:14;93481.31;;;27.52;46.09
10518;BME280;5307;42.548;22.968;2023-07-31T12:20:42;93484.44;;;27.16;44.00
10518;BME280;5307;42.548;22.968;2023-07-31T12:23:14;93479.53;;;27.32;44.63
10518;BME280;5307;42.548;22.968;2023-07-31T12:25:41;93479.81;;;26.96;44.51
10518;BME280;5307;42.548;22.968;2023-07-31T12:28:09;93486.53;;;27.56;43.07
10518;BME280;5307;42.548;22.968;2023-07-31T12:30:40;93484.38;;;27.87;42.58
10518;BME280;5307;42.548;22.968;2023-07-31T12:33:14;93496.03;;;27.13;42.87
10518;BME280;5307;42.548;22.968;2023-07-31T12:35:46;93486.47;;;27.31;44.77
10518;BME280;5307;42.548;22.968;2023-07-31T12:38:14;93481.84;;;27.11;43.03
10518;BME280;5307;42.548;22.968;2023-07-31T12:40:41;93483.53;;;26.99;42.96
10518;BME280;5307;42.548;22.968;2023-07-31T12:43:10;93486.72;;;27.10;43.64
10518;BME280;5307;42.548;22.968;2023-07-31T12:45:36;93474.38;;;26.98;43.49
10518;BME280;5307;42.548;22.968;2023-07-31T12:48:03;93468.28;;;27.40;44.35
10518;BME280;5307;42.548;22.968;2023-07-31T12:50:30;93468.59;;;26.96;43.29
10518;BME280;5307;42.548;22.968;2023-07-31T12:52:57;93470.69;;;27.03;42.87
10518;BME280;5307;42.548;22.968;2023-07-31T12:55:24;93460.59;;;27.48;42.72
10518;BME280;5307;42.548;22.968;2023-07-31T12:57:51;93454.59;;;26.88;42.94
10518;BME280;5307;42.548;22.968;2023-07-31T13:00:19;93458.75;;;26.80;43.09
10518;BME280;5307;42.548;22.968;2023-07-31T13:02:46;93462.22;;;27.18;43.82
10518;BME280;5307;42.548;22.968;2023-07-31T13:05:13;93456.22;;;27.14;44.56
10518;BME280;5307;42.548;22.968;2023-07-31T13:07:40;93454.22;;;26.84;44.33
10518;BME280;5307;42.548;22.968;2023-07-31T13:10:08;93446.56;;;26.85;45.21
10518;BME280;5307;42.548;22.968;2023-07-31T13:12:35;93438.94;;;26.78;44.83
10518;BME280;5307;42.548;22.968;2023-07-31T13:15:02;93448.84;;;26.79;44.70
10518;BME280;5307;42.548;22.968;2023-07-31T13:17:30;93453.53;;;26.46;46.07